createdAt,value
2023-01-06T00:00:45.501Z,6.31
2023-01-06T00:03:12.032Z,6.24
2023-01-06T00:05:38.516Z,6.21
2023-01-06T00:08:04.976Z,6.10
2023-01-06T00:10:31.464Z,6.03
2023-01-06T00:12:57.964Z,6.05
2023-01-06T00:15:24.595Z,6.05
2023-01-06T00:17:51.119Z,6.08
2023-01-06T00:20:17.707Z,6.13
2023-01-06T00:22:44.209Z,6.24
2023-01-06T00:25:11.053Z,6.30
2023-01-06T00:27:39.455Z,6.33
2023-01-06T00:30:07.203Z,6.38
2023-01-06T00:32:34.288Z,6.42
2023-01-06T00:35:00.879Z,6.44
2023-01-06T00:37:27.373Z,6.47
2023-01-06T00:39:53.896Z,6.50
2023-01-06T00:42:20.357Z,6.53
2023-01-06T00:44:46.780Z,6.59
2023-01-06T00:47:14.159Z,6.61
2023-01-06T00:49:40.591Z,6.62
2023-01-06T00:52:07.143Z,6.64
2023-01-06T00:54:33.582Z,6.65
2023-01-06T00:57:00.029Z,6.56
2023-01-06T00:59:26.907Z,6.45
2023-01-06T01:01:56.680Z,6.46
2023-01-06T01:04:24.518Z,6.39
2023-01-06T01:06:51.889Z,6.30
2023-01-06T01:09:22.088Z,6.28
2023-01-06T01:12:08.415Z,6.26
2023-01-06T01:14:39.766Z,6.27
2023-01-06T01:17:07.376Z,6.27
2023-01-06T01:19:34.258Z,6.26
2023-01-06T01:22:01.045Z,6.16
2023-01-06T01:24:27.540Z,6.10
2023-01-06T01:26:54.036Z,5.99
2023-01-06T01:29:20.656Z,5.98
2023-01-06T01:31:49.532Z,5.96
2023-01-06T01:34:17.550Z,5.95
2023-01-06T01:36:46.506Z,5.97
2023-01-06T01:39:15.281Z,5.93
2023-01-06T01:41:42.208Z,5.88
2023-01-06T01:44:46.161Z,5.83
2023-01-06T01:47:17.039Z,5.79
2023-01-06T01:49:45.611Z,5.79
2023-01-06T01:52:13.098Z,5.70
2023-01-06T01:54:40.662Z,5.68
2023-01-06T01:57:15.713Z,5.65
2023-01-06T01:59:44.148Z,5.57
2023-01-06T02:02:12.085Z,5.57
2023-01-06T02:04:42.117Z,5.53
2023-01-06T02:07:10.242Z,5.50
2023-01-06T02:10:09.503Z,5.52
2023-01-06T02:12:36.638Z,5.53
2023-01-06T02:15:03.864Z,5.49
2023-01-06T02:17:39.256Z,5.46
2023-01-06T02:20:28.898Z,5.43
2023-01-06T02:23:29.177Z,5.36
2023-01-06T02:26:15.372Z,5.33
2023-01-06T02:29:08.112Z,5.32
2023-01-06T02:32:02.802Z,5.30
2023-01-06T02:34:54.143Z,5.24
2023-01-06T02:37:42.304Z,5.19
2023-01-06T02:40:28.971Z,5.19
2023-01-06T02:43:18.291Z,5.17
2023-01-06T02:45:53.613Z,5.17
2023-01-06T02:48:43.845Z,5.10
2023-01-06T02:51:18.807Z,5.10
2023-01-06T02:53:51.487Z,5.04
2023-01-06T02:56:23.896Z,4.99
2023-01-06T02:59:00.553Z,4.94
2023-01-06T03:01:32.894Z,4.91
2023-01-06T03:04:05.263Z,4.85
2023-01-06T03:06:36.340Z,4.69
2023-01-06T03:09:05.141Z,4.66
2023-01-06T03:11:38.927Z,4.62
2023-01-06T03:14:27.673Z,4.57
2023-01-06T03:16:55.340Z,4.60
2023-01-06T03:19:24.042Z,4.55
2023-01-06T03:21:52.097Z,4.42
2023-01-06T03:24:21.708Z,4.38
2023-01-06T03:26:49.156Z,4.39
2023-01-06T03:29:18.204Z,4.43
2023-01-06T03:31:59.737Z,4.46
2023-01-06T03:34:48.321Z,4.51
2023-01-06T03:37:31.525Z,4.50
2023-01-06T03:40:12.306Z,4.31
2023-01-06T03:43:05.004Z,4.26
2023-01-06T03:45:58.384Z,4.25
2023-01-06T03:48:50.993Z,4.26
2023-01-06T03:51:39.864Z,4.18
2023-01-06T03:54:24.448Z,4.17
2023-01-06T03:57:11.639Z,4.14
2023-01-06T03:59:42.959Z,4.10
2023-01-06T04:02:10.045Z,4.10
2023-01-06T04:04:37.624Z,4.10
2023-01-06T04:07:04.197Z,4.12
2023-01-06T04:09:35.056Z,4.12
2023-01-06T04:12:20.176Z,4.13
2023-01-06T04:14:46.802Z,4.13
2023-01-06T04:17:13.771Z,4.13
2023-01-06T04:19:40.935Z,4.10
2023-01-06T04:22:07.448Z,4.17
2023-01-06T04:24:34.092Z,4.25
2023-01-06T04:27:00.727Z,4.17
2023-01-06T04:29:27.710Z,4.00
2023-01-06T04:31:55.969Z,3.97
2023-01-06T04:34:22.552Z,3.99
2023-01-06T04:36:49.129Z,3.88
2023-01-06T04:39:15.569Z,3.81
2023-01-06T04:41:41.980Z,3.81
2023-01-06T04:44:08.457Z,3.87
2023-01-06T04:46:34.888Z,3.90
2023-01-06T04:49:01.389Z,3.73
2023-01-06T04:51:27.838Z,3.71
2023-01-06T04:53:54.283Z,3.73
2023-01-06T04:56:20.782Z,3.80
2023-01-06T04:58:47.425Z,3.90
2023-01-06T05:01:14.539Z,3.94
2023-01-06T05:03:41.789Z,3.90
2023-01-06T05:06:10.683Z,3.96
2023-01-06T05:08:41.635Z,3.97
2023-01-06T05:11:20.219Z,4.00
2023-01-06T05:13:47.063Z,3.97
2023-01-06T05:16:23.598Z,4.02
2023-01-06T05:18:50.382Z,4.04
2023-01-06T05:21:17.067Z,4.00
2023-01-06T05:23:43.840Z,4.04
2023-01-06T05:26:17.056Z,4.06
2023-01-06T05:28:43.894Z,4.05
2023-01-06T05:31:11.445Z,4.14
2023-01-06T05:33:38.876Z,4.14
2023-01-06T05:36:08.541Z,4.16
2023-01-06T05:38:35.072Z,4.19
2023-01-06T05:41:02.190Z,4.24
2023-01-06T05:43:29.162Z,4.34
2023-01-06T05:45:56.081Z,4.33
2023-01-06T05:48:27.242Z,4.38
2023-01-06T05:51:00.673Z,4.30
2023-01-06T05:53:27.076Z,4.39
2023-01-06T05:55:58.482Z,4.55
2023-01-06T05:58:24.879Z,4.69
2023-01-06T06:00:51.290Z,4.87
2023-01-06T06:03:17.716Z,4.96
2023-01-06T06:05:44.113Z,5.07
2023-01-06T06:08:10.561Z,5.07
2023-01-06T06:10:36.970Z,5.20
2023-01-06T06:13:03.460Z,5.23
2023-01-06T06:15:29.942Z,5.41
2023-01-06T06:17:56.394Z,5.55
2023-01-06T06:20:22.872Z,5.70
2023-01-06T06:22:49.303Z,5.76
2023-01-06T06:25:15.880Z,5.85
2023-01-06T06:27:42.342Z,5.92
2023-01-06T06:30:09.150Z,5.95
2023-01-06T06:32:35.608Z,6.00
2023-01-06T06:35:02.061Z,6.06
2023-01-06T06:37:28.533Z,6.10
2023-01-06T06:39:54.927Z,6.15
2023-01-06T06:42:21.336Z,6.22
2023-01-06T06:44:47.783Z,6.28
2023-01-06T06:47:15.804Z,6.34
2023-01-06T06:49:42.227Z,6.38
2023-01-06T06:52:08.683Z,6.42
2023-01-06T06:54:35.186Z,6.43
2023-01-06T06:57:01.744Z,6.44
2023-01-06T06:59:28.235Z,6.49
2023-01-06T07:01:54.739Z,6.51
2023-01-06T07:04:21.207Z,6.54
2023-01-06T07:06:47.643Z,6.59
2023-01-06T07:09:14.023Z,6.60
2023-01-06T07:11:40.444Z,6.61
2023-01-06T07:14:06.832Z,6.61
2023-01-06T07:16:33.269Z,6.61
2023-01-06T07:18:59.699Z,6.65
2023-01-06T07:21:26.137Z,6.64
2023-01-06T07:23:52.590Z,6.65
2023-01-06T07:26:19.104Z,6.68
2023-01-06T07:28:45.591Z,6.70
2023-01-06T07:31:12.134Z,6.74
2023-01-06T07:33:38.582Z,6.77
2023-01-06T07:36:05.318Z,6.78
2023-01-06T07:38:31.710Z,6.79
2023-01-06T07:41:01.540Z,6.78
2023-01-06T07:43:28.366Z,6.78
2023-01-06T07:45:54.925Z,6.82
2023-01-06T07:48:21.398Z,6.87
2023-01-06T07:50:47.889Z,6.88
2023-01-06T07:53:14.298Z,6.90
2023-01-06T07:55:40.808Z,6.93
2023-01-06T07:58:09.170Z,6.94
2023-01-06T08:00:36.436Z,6.98
2023-01-06T08:03:05.599Z,6.98
2023-01-06T08:05:32.297Z,6.95
2023-01-06T08:07:59.159Z,6.96
2023-01-06T08:10:25.654Z,7.00
2023-01-06T08:12:52.155Z,6.98
2023-01-06T08:15:18.572Z,7.00
2023-01-06T08:17:44.979Z,7.07
2023-01-06T08:20:11.469Z,7.08
2023-01-06T08:22:37.971Z,7.16
2023-01-06T08:25:04.549Z,7.19
2023-01-06T08:27:31.021Z,7.20
2023-01-06T08:29:57.452Z,7.17
2023-01-06T08:32:23.899Z,7.08
2023-01-06T08:34:50.329Z,7.12
2023-01-06T08:37:16.842Z,7.07
2023-01-06T08:39:44.409Z,7.11
2023-01-06T08:42:11.157Z,7.22
2023-01-06T08:44:37.557Z,7.18
2023-01-06T08:47:04.263Z,7.24
2023-01-06T08:49:30.867Z,7.25
2023-01-06T08:51:57.387Z,7.28
2023-01-06T08:54:23.844Z,7.37
2023-01-06T08:56:50.288Z,7.43
2023-01-06T08:59:17.764Z,7.50
2023-01-06T09:01:44.527Z,7.50
2023-01-06T09:04:11.713Z,7.56
2023-01-06T09:06:38.725Z,7.47
2023-01-06T09:09:07.251Z,7.48
2023-01-06T09:11:34.172Z,7.39
2023-01-06T09:14:01.001Z,7.48
2023-01-06T09:16:27.451Z,7.49
2023-01-06T09:18:53.978Z,7.51
2023-01-06T09:21:22.742Z,7.58
2023-01-06T09:23:49.817Z,7.51
2023-01-06T09:26:17.309Z,7.50
2023-01-06T09:28:44.141Z,7.42
2023-01-06T09:31:11.420Z,7.47
2023-01-06T09:33:38.145Z,7.52
2023-01-06T09:36:05.095Z,7.44
2023-01-06T09:38:31.607Z,7.53
2023-01-06T09:41:26.007Z,7.63
2023-01-06T09:44:13.223Z,7.68
2023-01-06T09:46:44.310Z,7.66
2023-01-06T09:49:27.306Z,7.66
2023-01-06T09:52:01.464Z,7.65
2023-01-06T09:54:33.582Z,7.77
2023-01-06T09:57:07.098Z,7.90
2023-01-06T09:59:53.916Z,7.88
2023-01-06T10:02:27.836Z,7.88
2023-01-06T10:04:54.443Z,7.96
2023-01-06T10:07:43.120Z,8.07
2023-01-06T10:10:30.928Z,7.93
2023-01-06T10:13:08.425Z,7.93
2023-01-06T10:15:47.254Z,8.00
2023-01-06T10:18:31.708Z,7.85
2023-01-06T10:21:17.283Z,7.91
2023-01-06T10:24:24.793Z,7.96
2023-01-06T10:27:02.068Z,8.03
2023-01-06T10:29:34.060Z,7.98
2023-01-06T10:32:02.226Z,7.97
2023-01-06T10:34:29.473Z,8.07
2023-01-06T10:37:20.466Z,8.28
2023-01-06T10:39:53.984Z,8.36
2023-01-06T10:42:57.815Z,8.48
2023-01-06T10:45:27.436Z,8.38
2023-01-06T10:47:54.422Z,8.41
2023-01-06T10:50:21.304Z,8.43
2023-01-06T10:52:48.443Z,8.39
2023-01-06T10:55:41.620Z,8.64
2023-01-06T10:58:17.284Z,8.85
2023-01-06T11:00:59.431Z,9.09
2023-01-06T11:03:35.144Z,9.12
2023-01-06T11:06:07.561Z,9.06
2023-01-06T11:08:36.497Z,8.66
2023-01-06T11:11:26.723Z,8.32
2023-01-06T11:13:57.742Z,8.18
2023-01-06T11:16:27.682Z,8.31
2023-01-06T11:19:00.693Z,8.56
2023-01-06T11:21:46.692Z,8.71
2023-01-06T11:24:24.636Z,8.66
2023-01-06T11:26:52.114Z,8.54
2023-01-06T11:29:33.422Z,8.43
2023-01-06T11:32:04.770Z,8.57
2023-01-06T11:34:32.275Z,8.39
2023-01-06T11:36:59.278Z,8.29
2023-01-06T11:39:34.238Z,8.13
2023-01-06T11:42:14.216Z,8.32
2023-01-06T11:44:42.912Z,8.36
2023-01-06T11:47:16.878Z,8.22
2023-01-06T11:49:46.875Z,8.17
2023-01-06T11:52:47.329Z,8.08
2023-01-06T11:55:14.166Z,8.12
2023-01-06T11:58:02.629Z,8.07
2023-01-06T12:00:38.469Z,8.12
2023-01-06T12:03:17.312Z,8.25
2023-01-06T12:06:04.509Z,8.60
2023-01-06T12:08:43.371Z,8.61
2023-01-06T12:11:23.587Z,8.52
2023-01-06T12:14:10.647Z,8.59
2023-01-06T12:16:40.086Z,8.52
2023-01-06T12:19:16.976Z,8.39
2023-01-06T12:21:43.650Z,8.41
2023-01-06T12:24:15.411Z,8.45
2023-01-06T12:26:43.980Z,8.47
2023-01-06T12:29:18.279Z,8.43
2023-01-06T12:32:03.758Z,8.42
2023-01-06T12:34:37.595Z,8.54
2023-01-06T12:37:10.456Z,8.55
2023-01-06T12:39:59.924Z,8.78
2023-01-06T12:42:45.102Z,8.89
2023-01-06T12:45:36.304Z,8.91
2023-01-06T12:48:15.924Z,8.87
2023-01-06T12:50:51.391Z,8.85
2023-01-06T12:53:28.685Z,8.78
2023-01-06T12:56:26.574Z,8.68
2023-01-06T12:59:24.271Z,8.53
2023-01-06T13:02:08.270Z,8.53
2023-01-06T13:04:45.760Z,8.68
2023-01-06T13:07:34.201Z,8.79
2023-01-06T13:10:33.843Z,8.87
2023-01-06T13:13:28.371Z,8.91
2023-01-06T13:16:00.778Z,8.94
2023-01-06T13:18:43.314Z,9.01
2023-01-06T13:21:21.866Z,9.08
2023-01-06T13:24:07.008Z,8.99
2023-01-06T13:27:18.793Z,8.85
2023-01-06T13:29:53.204Z,9.04
2023-01-06T13:32:49.863Z,9.03
2023-01-06T13:35:38.127Z,9.26
2023-01-06T13:38:31.465Z,9.39
2023-01-06T13:41:04.129Z,9.23
2023-01-06T13:43:34.046Z,9.20
2023-01-06T13:46:06.276Z,9.21
2023-01-06T13:48:37.052Z,9.12
2023-01-06T13:51:07.064Z,9.06
2023-01-06T13:53:39.864Z,8.90
2023-01-06T13:56:12.104Z,8.78
2023-01-06T13:58:42.138Z,8.65
2023-01-06T14:01:30.579Z,8.59
2023-01-06T14:04:28.951Z,8.48
2023-01-06T14:06:56.840Z,8.67
2023-01-06T14:09:23.593Z,8.73
2023-01-06T14:11:50.388Z,8.43
2023-01-06T14:14:25.326Z,8.19
2023-01-06T14:16:54.357Z,8.17
2023-01-06T14:19:25.376Z,8.32
2023-01-06T14:21:55.684Z,8.26
2023-01-06T14:24:33.261Z,8.22
2023-01-06T14:27:11.318Z,8.27
2023-01-06T14:29:43.764Z,8.24
2023-01-06T14:32:19.031Z,8.19
2023-01-06T14:34:56.110Z,8.22
2023-01-06T14:37:28.584Z,8.23
2023-01-06T14:39:56.563Z,8.11
2023-01-06T14:42:34.817Z,8.08
2023-01-06T14:45:07.747Z,8.07
2023-01-06T14:47:42.718Z,8.04
2023-01-06T14:50:16.182Z,8.04
2023-01-06T14:52:57.450Z,8.10
2023-01-06T14:55:26.652Z,8.06
2023-01-06T14:57:53.171Z,7.99
2023-01-06T15:00:27.101Z,7.86
2023-01-06T15:02:55.575Z,7.84
2023-01-06T15:05:26.843Z,7.80
2023-01-06T15:08:11.690Z,7.83
2023-01-06T15:10:46.950Z,7.75
2023-01-06T15:13:26.659Z,7.80
2023-01-06T15:15:59.167Z,7.73
2023-01-06T15:18:25.743Z,7.73
2023-01-06T15:20:55.113Z,7.80
2023-01-06T15:23:22.019Z,7.83
2023-01-06T15:25:51.233Z,7.74
2023-01-06T15:28:29.488Z,7.63
2023-01-06T15:30:57.005Z,7.61
2023-01-06T15:33:28.457Z,7.53
2023-01-06T15:35:55.685Z,7.45
2023-01-06T15:38:22.047Z,7.46
2023-01-06T15:40:49.943Z,7.40
2023-01-06T15:43:16.947Z,7.43
2023-01-06T15:45:55.996Z,7.30
2023-01-06T15:48:28.959Z,7.22
2023-01-06T15:50:55.724Z,7.27
2023-01-06T15:53:25.971Z,7.21
2023-01-06T15:55:56.146Z,7.22
2023-01-06T15:58:30.365Z,7.25
2023-01-06T16:01:08.533Z,7.27
2023-01-06T16:03:35.810Z,7.27
2023-01-06T16:06:24.687Z,7.28
2023-01-06T16:08:51.181Z,7.23
2023-01-06T16:11:17.541Z,7.18
2023-01-06T16:13:58.283Z,7.13
2023-01-06T16:16:31.538Z,7.04
2023-01-06T16:18:58.368Z,7.08
2023-01-06T16:21:28.624Z,7.08
2023-01-06T16:23:57.787Z,7.07
2023-01-06T16:26:29.848Z,7.05
2023-01-06T16:28:58.291Z,6.96
2023-01-06T16:31:32.401Z,6.89
2023-01-06T16:34:23.954Z,6.94
2023-01-06T16:36:52.375Z,7.06
2023-01-06T16:39:18.838Z,7.06
2023-01-06T16:42:33.406Z,7.18
2023-01-06T16:45:02.154Z,7.21
2023-01-06T16:47:29.047Z,7.22
2023-01-06T16:49:56.763Z,7.30
2023-01-06T16:52:25.037Z,7.17
2023-01-06T16:54:56.667Z,7.14
2023-01-06T16:57:23.494Z,7.12
2023-01-06T16:59:50.127Z,7.09
2023-01-06T17:02:18.883Z,7.16
2023-01-06T17:04:47.189Z,7.21
2023-01-06T17:07:15.097Z,7.27
2023-01-06T17:09:42.856Z,7.28
2023-01-06T17:12:35.025Z,7.31
2023-01-06T17:15:01.762Z,7.34
2023-01-06T17:17:28.255Z,7.23
2023-01-06T17:19:55.544Z,7.24
2023-01-06T17:22:31.046Z,7.23
2023-01-06T17:25:01.743Z,7.32
2023-01-06T17:27:29.914Z,7.33
2023-01-06T17:30:01.084Z,7.28
2023-01-06T17:32:34.955Z,7.34
2023-01-06T17:35:02.201Z,7.36
2023-01-06T17:37:29.968Z,7.37
2023-01-06T17:39:57.224Z,7.35
2023-01-06T17:42:28.971Z,7.38
2023-01-06T17:44:57.420Z,7.33
2023-01-06T17:47:23.759Z,7.19
2023-01-06T17:49:56.197Z,7.25
2023-01-06T17:52:36.525Z,7.27
2023-01-06T17:55:44.195Z,7.23
2023-01-06T17:58:22.846Z,7.26
2023-01-06T18:00:49.357Z,7.34
2023-01-06T18:03:23.467Z,7.31
2023-01-06T18:05:58.972Z,7.33
2023-01-06T18:08:27.195Z,7.39
2023-01-06T18:11:00.188Z,7.37
2023-01-06T18:13:38.755Z,7.41
2023-01-06T18:16:15.389Z,7.42
2023-01-06T18:18:42.242Z,7.48
2023-01-06T18:21:14.616Z,7.43
2023-01-06T18:23:46.203Z,7.42
2023-01-06T18:26:27.777Z,7.39
2023-01-06T18:28:59.090Z,7.37
2023-01-06T18:31:32.182Z,7.36
2023-01-06T18:34:01.366Z,7.40
2023-01-06T18:36:27.784Z,7.39
2023-01-06T18:38:55.148Z,7.35
2023-01-06T18:41:21.594Z,7.27
2023-01-06T18:43:48.051Z,7.20
2023-01-06T18:46:17.336Z,7.25
2023-01-06T18:48:45.279Z,7.21
2023-01-06T18:51:21.904Z,7.22
2023-01-06T18:53:50.288Z,7.22
2023-01-06T18:56:21.061Z,7.25
2023-01-06T18:58:53.074Z,7.27
2023-01-06T19:01:34.861Z,7.30
2023-01-06T19:04:16.134Z,7.31
2023-01-06T19:06:49.181Z,7.22
2023-01-06T19:09:34.515Z,7.14
2023-01-06T19:12:05.829Z,7.13
2023-01-06T19:14:35.403Z,7.12
2023-01-06T19:17:02.147Z,7.18
2023-01-06T19:19:38.367Z,7.23
2023-01-06T19:22:19.823Z,7.17
2023-01-06T19:24:57.489Z,7.15
2023-01-06T19:27:37.695Z,7.17
2023-01-06T19:30:13.128Z,7.18
2023-01-06T19:32:39.936Z,7.21
2023-01-06T19:35:25.762Z,7.23
2023-01-06T19:38:02.453Z,7.26
2023-01-06T19:40:31.175Z,7.23
2023-01-06T19:43:18.654Z,7.21
2023-01-06T19:45:45.465Z,7.21
2023-01-06T19:48:26.556Z,7.16
2023-01-06T19:51:01.803Z,7.20
2023-01-06T19:53:38.780Z,7.19
2023-01-06T19:56:16.389Z,7.19
2023-01-06T19:58:45.239Z,7.21
2023-01-06T20:01:14.214Z,7.17
2023-01-06T20:03:46.295Z,7.18
2023-01-06T20:06:14.549Z,7.10
2023-01-06T20:08:43.933Z,7.13
2023-01-06T20:11:11.783Z,7.17
2023-01-06T20:13:38.367Z,7.12
2023-01-06T20:16:05.659Z,7.12
2023-01-06T20:18:32.252Z,7.09
2023-01-06T20:20:58.715Z,7.11
2023-01-06T20:23:25.152Z,7.08
2023-01-06T20:25:51.898Z,7.06
2023-01-06T20:28:18.402Z,7.08
2023-01-06T20:30:46.461Z,7.10
2023-01-06T20:33:13.344Z,7.06
2023-01-06T20:35:39.812Z,7.10
2023-01-06T20:38:06.287Z,7.08
2023-01-06T20:40:32.885Z,6.99
2023-01-06T20:42:59.308Z,6.97
2023-01-06T20:45:25.766Z,6.91
2023-01-06T20:47:52.179Z,6.92
2023-01-06T20:50:18.635Z,6.93
2023-01-06T20:52:47.701Z,6.84
2023-01-06T20:55:14.745Z,6.82
2023-01-06T20:57:41.247Z,6.84
2023-01-06T21:00:10.786Z,6.84
2023-01-06T21:02:37.764Z,6.84
2023-01-06T21:05:05.588Z,6.82
2023-01-06T21:07:32.117Z,6.83
2023-01-06T21:09:58.582Z,6.87
2023-01-06T21:12:25.054Z,6.89
2023-01-06T21:14:51.492Z,6.89
2023-01-06T21:17:17.955Z,6.92
2023-01-06T21:19:44.395Z,6.87
2023-01-06T21:22:10.793Z,6.80
2023-01-06T21:24:37.253Z,6.79
2023-01-06T21:27:03.687Z,6.73
2023-01-06T21:29:30.169Z,6.73
2023-01-06T21:31:56.613Z,6.71
2023-01-06T21:34:23.047Z,6.74
2023-01-06T21:36:49.481Z,6.76
2023-01-06T21:39:16.690Z,6.78
2023-01-06T21:42:01.844Z,6.82
2023-01-06T21:44:28.266Z,6.75
2023-01-06T21:46:54.691Z,6.76
2023-01-06T21:49:21.139Z,6.81
2023-01-06T21:51:48.834Z,6.83
2023-01-06T21:54:15.312Z,6.81
2023-01-06T21:56:41.790Z,6.80
2023-01-06T21:59:08.898Z,6.82
2023-01-06T22:01:35.429Z,6.70
2023-01-06T22:04:01.963Z,6.71
2023-01-06T22:06:29.838Z,6.72
2023-01-06T22:08:59.576Z,6.70
2023-01-06T22:11:27.916Z,6.74
2023-01-06T22:13:55.103Z,6.78
2023-01-06T22:16:21.726Z,6.80
2023-01-06T22:18:48.351Z,6.79
2023-01-06T22:21:14.830Z,6.73
2023-01-06T22:23:41.353Z,6.74
2023-01-06T22:26:07.819Z,6.73
2023-01-06T22:28:34.226Z,6.56
2023-01-06T22:31:00.764Z,6.54
2023-01-06T22:33:27.337Z,6.51
2023-01-06T22:35:57.620Z,6.55
2023-01-06T22:38:24.073Z,6.59
2023-01-06T22:40:50.486Z,6.59
2023-01-06T22:43:18.191Z,6.59
2023-01-06T22:45:52.168Z,6.67
2023-01-06T22:48:19.099Z,6.65
2023-01-06T22:50:45.550Z,6.62
2023-01-06T22:53:12.104Z,6.48
2023-01-06T22:55:38.513Z,6.45
2023-01-06T22:58:04.981Z,6.41
2023-01-06T23:00:31.405Z,6.48
2023-01-06T23:02:58.114Z,6.53
2023-01-06T23:05:24.577Z,6.57
2023-01-06T23:07:51.027Z,6.59
2023-01-06T23:10:17.607Z,6.66
2023-01-06T23:12:44.059Z,6.67
2023-01-06T23:15:10.886Z,6.68
2023-01-06T23:17:37.949Z,6.65
2023-01-06T23:20:05.625Z,6.67
2023-01-06T23:22:32.073Z,6.66
2023-01-06T23:24:58.471Z,6.65
2023-01-06T23:27:24.863Z,6.65
2023-01-06T23:29:51.371Z,6.66
2023-01-06T23:32:17.792Z,6.63
2023-01-06T23:34:44.233Z,6.46
2023-01-06T23:37:10.846Z,6.41
2023-01-06T23:39:37.274Z,6.48
2023-01-06T23:42:05.527Z,6.47
2023-01-06T23:44:32.445Z,6.51
2023-01-06T23:46:59.121Z,6.53
2023-01-06T23:49:25.875Z,6.50
2023-01-06T23:51:52.532Z,6.54
2023-01-06T23:54:19.090Z,6.58
2023-01-06T23:56:45.608Z,6.60
2023-01-06T23:59:12.765Z,6.60
